Time;durP1;ratioP1;P1;durP2;ratioP2;P2;SDS_P1;SDS_P2;PMS_P1;PMS_P2;Temp;Humidity;BMP_temperature;BMP_pressure;BME280_temperature;BME280_humidity;BME280_pressure;Samples;Min_cycle;Max_cycle;Signal;HPM_P1;HPM_P2
2022/04/08 00:01:26;;;;;;;4.77;1.00;;;;;;;7.09;100.00;99112.38;5031364;28;20191;-72
2022/04/08 00:03:52;;;;;;;4.83;1.10;;;;;;;6.59;100.00;99062.53;5029335;28;20187;-72
2022/04/08 00:06:18;;;;;;;5.13;1.63;;;;;;;6.87;100.00;99085.28;5030314;28;20468;-72
2022/04/08 00:08:45;;;;;;;9.07;1.30;;;;;;;6.72;100.00;99037.66;5030714;28;20442;-72
2022/04/08 00:11:11;;;;;;;3.97;1.10;;;;;;;6.78;100.00;99074.91;5031882;28;20442;-72
2022/04/08 00:13:36;;;;;;;3.97;1.20;;;;;;;6.83;100.00;99108.06;5030511;28;20466;-72
2022/04/08 00:16:01;;;;;;;3.47;1.50;;;;;;;6.79;100.00;99118.34;5036039;28;20204;-72
2022/04/08 00:18:29;;;;;;;6.67;1.60;;;;;;;7.01;100.00;99143.63;5032967;28;20754;-72
2022/04/08 00:20:56;;;;;;;4.53;1.20;;;;;;;6.83;100.00;99118.72;5036767;28;20214;-72
2022/04/08 00:23:21;;;;;;;3.33;1.07;;;;;;;6.64;100.00;99131.97;5034532;28;20944;-71
2022/04/08 00:25:47;;;;;;;5.50;1.20;;;;;;;6.92;100.00;99138.78;5036633;28;20532;-72
2022/04/08 00:28:12;;;;;;;3.70;1.00;;;;;;;6.88;100.00;99181.00;5035147;28;20221;-71
2022/04/08 00:30:37;;;;;;;7.13;1.43;;;;;;;6.71;100.00;99146.09;5030616;28;20268;-72
2022/04/08 00:33:03;;;;;;;2.47;0.93;;;;;;;6.84;100.00;99157.69;5039077;28;20200;-72
2022/04/08 00:35:28;;;;;;;3.13;0.90;;;;;;;6.65;100.00;99152.25;5033519;28;20218;-72
2022/04/08 00:37:53;;;;;;;3.73;0.90;;;;;;;6.56;100.00;99183.66;5033512;28;20192;-72
2022/04/08 00:40:19;;;;;;;3.27;0.90;;;;;;;6.24;100.00;99179.31;5030474;28;20195;-71
2022/04/08 00:42:44;;;;;;;3.63;0.87;;;;;;;6.46;100.00;99212.63;5032487;28;20654;-72
2022/04/08 00:45:10;;;;;;;2.53;0.70;;;;;;;6.26;100.00;99201.22;5036486;28;20206;-71
2022/04/08 00:47:37;;;;;;;3.67;0.80;;;;;;;6.68;100.00;99258.44;5030032;28;20188;-71
2022/04/08 00:50:07;;;;;;;4.60;0.80;;;;;;;5.84;100.00;99206.84;5033502;28;20176;-71
2022/04/08 00:52:35;;;;;;;2.83;0.70;;;;;;;6.18;100.00;99291.97;5031030;28;20469;-72
2022/04/08 00:55:05;;;;;;;5.67;1.30;;;;;;;6.14;100.00;99266.81;5032118;28;20466;-71
2022/04/08 00:57:31;;;;;;;4.97;1.20;;;;;;;6.36;100.00;99288.66;5037263;28;20435;-71
2022/04/08 01:00:00;;;;;;;2.53;1.10;;;;;;;6.01;100.00;99264.97;5031637;28;20891;-71
2022/04/08 01:02:28;;;;;;;7.07;1.23;;;;;;;5.79;100.00;99229.78;5033009;28;20446;-71
2022/04/08 01:04:53;;;;;;;3.43;0.97;;;;;;;6.26;100.00;99287.25;5034766;28;20571;-71
2022/04/08 01:07:19;;;;;;;5.30;0.97;;;;;;;5.87;100.00;99245.50;5035060;28;20435;-71
2022/04/08 01:09:44;;;;;;;2.90;1.40;;;;;;;5.84;100.00;99228.13;5036004;28;20662;-71
2022/04/08 01:12:10;;;;;;;3.27;1.03;;;;;;;6.60;100.00;99317.28;5033975;28;20230;-71
2022/04/08 01:14:38;;;;;;;4.30;1.00;;;;;;;6.19;100.00;99291.78;5031373;28;20271;-72
2022/04/08 01:17:04;;;;;;;5.70;1.00;;;;;;;5.76;100.00;99262.94;5028041;28;20827;-71
2022/04/08 01:19:29;;;;;;;4.30;1.20;;;;;;;6.38;100.00;99342.53;5037408;28;21125;-72
2022/04/08 01:21:55;;;;;;;7.00;1.80;;;;;;;6.44;100.00;99342.50;5033727;28;20198;-71
2022/04/08 01:24:22;;;;;;;5.67;1.53;;;;;;;5.97;100.00;99285.06;5033847;28;20194;-71
2022/04/08 01:26:47;;;;;;;5.83;1.27;;;;;;;5.56;100.00;99249.63;5030850;28;20386;-71
2022/04/08 01:29:15;;;;;;;5.00;1.17;;;;;;;5.82;100.00;99286.06;5042224;28;20541;-74
2022/04/08 01:31:43;;;;;;;4.07;1.00;;;;;;;5.99;100.00;99275.00;5035391;28;20696;-74
2022/04/08 01:34:09;;;;;;;3.63;1.07;;;;;;;6.10;100.00;99319.63;5035884;28;20474;-74
2022/04/08 01:36:34;;;;;;;4.50;0.93;;;;;;;5.96;100.00;99268.28;5032985;28;20467;-74
2022/04/08 01:39:00;;;;;;;5.37;1.30;;;;;;;6.21;100.00;99307.53;5034731;28;20275;-71
2022/04/08 01:41:28;;;;;;;5.40;1.07;;;;;;;6.31;100.00;99307.94;5032432;28;20212;-71
2022/04/08 01:43:53;;;;;;;6.97;1.87;;;;;;;6.32;100.00;99345.00;5034045;28;20187;-74
2022/04/08 01:46:19;;;;;;;8.50;1.67;;;;;;;6.40;100.00;99340.50;5031849;28;20458;-70
2022/04/08 01:48:44;;;;;;;4.63;1.53;;;;;;;5.87;100.00;99277.44;5026697;28;20179;-72
2022/04/08 01:51:09;;;;;;;7.73;2.30;;;;;;;5.08;100.00;99203.81;5034284;28;20203;-72
2022/04/08 01:53:35;;;;;;;7.40;1.93;;;;;;;6.03;100.00;99316.16;5034656;28;20637;-72
2022/04/08 01:56:00;;;;;;;6.73;1.80;;;;;;;6.07;100.00;99306.72;5029157;28;20216;-72
2022/04/08 01:58:26;;;;;;;7.63;1.73;;;;;;;5.73;100.00;99292.63;5032593;28;20234;-72
2022/04/08 02:00:51;;;;;;;7.60;1.60;;;;;;;6.30;100.00;99341.72;5028344;28;20211;-73
2022/04/08 02:03:20;;;;;;;7.40;1.80;;;;;;;6.16;100.00;99317.97;5030030;28;20215;-73
2022/04/08 02:05:46;;;;;;;8.83;1.73;;;;;;;6.24;100.00;99357.69;5032760;28;20266;-73
2022/04/08 02:08:11;;;;;;;8.20;1.70;;;;;;;6.16;100.00;99340.09;5046890;28;20964;-73
2022/04/08 02:10:37;;;;;;;6.57;1.47;;;;;;;5.81;100.00;99326.97;5028284;28;20438;-73
2022/04/08 02:13:02;;;;;;;8.27;1.70;;;;;;;5.76;100.00;99294.03;5029975;28;20210;-73
2022/04/08 02:15:32;;;;;;;8.47;1.57;;;;;;;5.94;100.00;99315.56;5037013;28;20208;-73
2022/04/08 02:17:58;;;;;;;7.43;1.83;;;;;;;6.03;100.00;99311.66;5035031;28;20264;-73
2022/04/08 02:20:25;;;;;;;12.33;2.23;;;;;;;6.34;100.00;99379.41;5033655;28;20530;-72
2022/04/08 02:22:51;;;;;;;5.87;2.17;;;;;;;6.26;100.00;99363.66;5031261;28;20642;-73
2022/04/08 02:25:16;;;;;;;8.17;1.97;;;;;;;6.52;100.00;99381.44;5030972;28;20465;-73
2022/04/08 02:27:42;;;;;;;8.90;1.90;;;;;;;6.21;100.00;99358.13;5027990;28;20595;-73
2022/04/08 02:30:08;;;;;;;11.27;1.70;;;;;;;6.32;100.00;99386.78;5028291;28;20196;-72
2022/04/08 02:32:34;;;;;;;11.13;2.27;;;;;;;5.68;100.00;99334.97;5034490;28;20319;-72
2022/04/08 02:34:59;;;;;;;9.03;1.70;;;;;;;6.20;100.00;99391.91;5046325;22;20600;-73
2022/04/08 02:37:24;;;;;;;12.27;2.23;;;;;;;6.25;100.00;99396.59;5023918;28;20287;-73
2022/04/08 02:39:52;;;;;;;5.13;1.93;;;;;;;6.42;100.00;99394.34;5023936;28;20189;-73
2022/04/08 02:42:17;;;;;;;5.63;1.40;;;;;;;6.64;100.00;99402.94;5021246;28;20182;-73
2022/04/08 02:44:43;;;;;;;8.60;2.27;;;;;;;6.32;100.00;99392.13;5022424;28;20454;-73
2022/04/08 02:47:08;;;;;;;5.80;1.90;;;;;;;5.55;100.00;99306.50;5015012;28;20278;-73
2022/04/08 02:49:34;;;;;;;8.03;1.80;;;;;;;6.15;100.00;99396.22;5025215;28;20560;-72
2022/04/08 02:51:59;;;;;;;10.10;2.13;;;;;;;6.26;100.00;99408.91;5022624;28;20215;-72
2022/04/08 02:54:25;;;;;;;6.97;2.00;;;;;;;6.01;100.00;99361.59;5021538;28;20215;-72
2022/04/08 02:56:50;;;;;;;9.47;1.80;;;;;;;6.40;100.00;99423.88;5018273;28;20200;-73
2022/04/08 02:59:15;;;;;;;7.60;1.73;;;;;;;6.25;100.00;99391.28;5020493;28;20204;-73
2022/04/08 03:01:41;;;;;;;12.83;2.53;;;;;;;6.29;100.00;99405.84;5015862;28;20250;-73
2022/04/08 03:04:07;;;;;;;7.53;1.70;;;;;;;6.18;100.00;99409.13;5020745;28;20181;-73
2022/04/08 03:06:33;;;;;;;8.50;2.40;;;;;;;6.13;100.00;99392.94;5015609;28;20739;-73
2022/04/08 03:08:58;;;;;;;9.27;3.10;;;;;;;6.18;100.00;99396.63;5033123;28;20637;-73
2022/04/08 03:11:24;;;;;;;8.67;2.00;;;;;;;5.87;100.00;99354.59;5019775;28;20538;-73
2022/04/08 03:13:49;;;;;;;9.83;1.93;;;;;;;6.22;100.00;99403.19;5020512;28;20720;-73
2022/04/08 03:16:15;;;;;;;9.33;2.17;;;;;;;6.48;100.00;99412.16;5023003;28;20811;-73
2022/04/08 03:18:40;;;;;;;7.63;1.40;;;;;;;6.27;100.00;99394.56;5019947;28;20195;-73
2022/04/08 03:21:05;;;;;;;12.80;2.33;;;;;;;6.25;100.00;99386.78;5022087;28;20192;-72
2022/04/08 03:23:31;;;;;;;9.03;1.67;;;;;;;6.50;100.00;99445.56;5021445;28;20251;-73
2022/04/08 03:25:56;;;;;;;6.77;1.73;;;;;;;6.27;100.00;99426.53;5017102;28;20295;-73
2022/04/08 03:28:22;;;;;;;5.17;1.30;;;;;;;6.28;100.00;99385.56;5021016;28;20276;-73
2022/04/08 03:30:48;;;;;;;7.00;1.83;;;;;;;5.91;100.00;99387.78;5022043;28;20643;-73
2022/04/08 03:33:13;;;;;;;5.07;1.90;;;;;;;6.50;100.00;99469.53;5018079;28;20207;-73
2022/04/08 03:35:38;;;;;;;6.53;1.87;;;;;;;6.34;100.00;99453.97;5021193;28;20216;-73
2022/04/08 03:38:04;;;;;;;9.17;1.80;;;;;;;6.41;100.00;99468.09;5021367;28;20180;-73
2022/04/08 03:40:30;;;;;;;10.63;1.77;;;;;;;6.26;100.00;99435.53;5020970;28;20185;-73
2022/04/08 03:42:55;;;;;;;7.40;1.70;;;;;;;5.55;100.00;99349.06;5019850;28;20565;-73
2022/04/08 03:45:22;;;;;;;5.47;1.33;;;;;;;5.56;100.00;99481.03;5019721;28;21594;-73
2022/04/08 03:47:48;;;;;;;7.80;1.07;;;;;;;5.51;100.00;99477.34;5020135;28;20187;-73
2022/04/08 03:50:14;;;;;;;7.40;0.90;;;;;;;5.33;100.00;99453.94;5025585;28;20439;-73
2022/04/08 03:52:39;;;;;;;3.60;0.80;;;;;;;5.02;100.00;99390.63;5019598;28;20488;-73
2022/04/08 03:55:05;;;;;;;5.33;0.90;;;;;;;5.52;100.00;99463.00;5024413;28;20678;-73
2022/04/08 03:57:31;;;;;;;1.90;1.13;;;;;;;5.68;100.00;99480.47;5024776;28;20191;-73
2022/04/08 03:59:56;;;;;;;6.20;0.87;;;;;;;5.93;100.00;99473.59;5027203;28;20435;-73
2022/04/08 04:02:22;;;;;;;2.40;0.87;;;;;;;5.92;100.00;99455.13;5024998;28;20184;-73
2022/04/08 04:04:49;;;;;;;2.63;1.10;;;;;;;5.75;100.00;99471.47;5023469;28;20221;-73
2022/04/08 04:07:15;;;;;;;1.97;0.90;;;;;;;5.74;100.00;99447.72;5023205;28;20184;-73
2022/04/08 04:09:40;;;;;;;2.63;0.90;;;;;;;5.56;100.00;99409.22;5024833;28;20870;-73
2022/04/08 04:12:06;;;;;;;2.53;1.10;;;;;;;5.75;100.00;99438.72;5025277;28;20441;-73
2022/04/08 04:14:31;;;;;;;2.40;0.83;;;;;;;5.96;100.00;99506.97;5021562;28;20296;-73
2022/04/08 04:16:57;;;;;;;2.00;0.80;;;;;;;5.53;100.00;99462.81;5025388;28;20227;-73
2022/04/08 04:19:22;;;;;;;1.90;0.83;;;;;;;5.66;100.00;99520.56;5023748;28;20892;-74
2022/04/08 04:21:49;;;;;;;2.40;0.90;;;;;;;5.40;100.00;99446.81;5024767;28;20239;-74
2022/04/08 04:24:14;;;;;;;5.57;1.43;;;;;;;5.19;100.00;99499.06;5023643;28;20176;-73
2022/04/08 04:26:40;;;;;;;4.53;1.00;;;;;;;4.60;100.00;99478.28;5024521;28;20474;-72
2022/04/08 04:29:06;;;;;;;2.10;0.80;;;;;;;4.82;100.00;99481.69;5025493;28;20658;-73
2022/04/08 04:31:31;;;;;;;2.97;0.70;;;;;;;5.23;100.00;99515.44;5022051;28;20184;-72
2022/04/08 04:33:56;;;;;;;2.70;1.40;;;;;;;5.24;100.00;99511.78;5019999;28;20690;-73
2022/04/08 04:36:22;;;;;;;7.07;0.90;;;;;;;5.09;100.00;99479.19;5020388;28;20250;-73
2022/04/08 04:38:47;;;;;;;2.80;1.13;;;;;;;5.27;100.00;99532.66;5024148;28;20199;-73
2022/04/08 04:41:13;;;;;;;4.57;1.10;;;;;;;5.00;100.00;99473.19;5020537;28;20305;-73
2022/04/08 04:43:38;;;;;;;5.50;1.37;;;;;;;4.97;100.00;99436.38;5019809;28;20601;-73
2022/04/08 04:46:03;;;;;;;2.37;0.80;;;;;;;5.33;100.00;99473.38;5017750;28;20254;-73
2022/04/08 04:48:30;;;;;;;4.63;1.00;;;;;;;5.86;100.00;99537.41;5019148;28;20188;-73
2022/04/08 04:50:56;;;;;;;2.83;0.83;;;;;;;5.81;100.00;99541.69;5018573;28;20219;-73
2022/04/08 04:53:25;;;;;;;6.27;1.57;;;;;;;5.30;100.00;99471.13;5014343;28;20482;-73
2022/04/08 04:55:50;;;;;;;3.70;1.20;;;;;;;4.97;100.00;99420.44;5015344;28;20454;-73
2022/04/08 04:58:15;;;;;;;3.00;1.20;;;;;;;5.63;100.00;99515.63;5009655;28;20458;-73
2022/04/08 05:00:41;;;;;;;4.67;1.47;;;;;;;5.64;100.00;99534.06;5013924;28;20180;-73
2022/04/08 05:03:08;;;;;;;4.53;1.20;;;;;;;5.87;100.00;99541.72;5009770;28;20189;-73
2022/04/08 05:05:36;;;;;;;5.60;1.07;;;;;;;5.87;100.00;99538.22;5011344;28;20208;-75
2022/04/08 05:08:03;;;;;;;7.60;1.53;;;;;;;5.91;100.00;99566.09;5018296;28;20497;-74
2022/04/08 05:10:30;;;;;;;4.63;1.30;;;;;;;5.85;100.00;99556.25;5016952;28;20943;-75
2022/04/08 05:12:55;;;;;;;4.00;1.50;;;;;;;5.83;100.00;99568.94;5024096;28;20467;-74
2022/04/08 05:15:20;;;;;;;4.23;1.07;;;;;;;5.64;100.00;99534.06;5021777;28;20516;-73
2022/04/08 05:17:46;;;;;;;6.20;1.37;;;;;;;5.38;100.00;99475.44;5022840;28;20255;-73
2022/04/08 05:20:11;;;;;;;4.97;1.10;;;;;;;5.90;100.00;99559.13;5020594;28;20254;-74
2022/04/08 05:22:38;;;;;;;4.20;1.30;;;;;;;5.71;100.00;99571.34;5021827;28;20204;-74
2022/04/08 05:25:04;;;;;;;3.97;2.13;;;;;;;5.62;100.00;99576.00;5019043;28;22109;-74
2022/04/08 05:27:41;;;;;;;6.83;1.60;;;;;;;5.52;100.00;99596.81;5023873;28;20450;-74
2022/04/08 05:30:16;;;;;;;4.33;1.30;;;;;;;4.98;100.00;99578.88;5018834;28;20868;-75
2022/04/08 05:32:42;;;;;;;2.70;0.90;;;;;;;5.01;100.00;99559.91;5020480;28;20458;-74
2022/04/08 05:35:08;;;;;;;3.23;0.80;;;;;;;5.07;100.00;99572.41;5018079;28;20469;-75
2022/04/08 05:37:46;;;;;;;2.63;0.83;;;;;;;4.99;100.00;99588.50;5018924;28;21045;-75
2022/04/08 05:40:16;;;;;;;1.53;0.70;;;;;;;5.11;100.00;99604.72;5021226;28;20521;-75
2022/04/08 05:42:44;;;;;;;2.27;0.80;;;;;;;5.07;100.00;99598.16;5021503;28;20437;-74
2022/04/08 05:45:14;;;;;;;1.43;0.80;;;;;;;5.32;100.00;99606.50;5034988;28;20463;-75
2022/04/08 05:47:40;;;;;;;6.47;0.97;;;;;;;5.17;100.00;99596.78;5020664;28;20423;-75
2022/04/08 05:50:06;;;;;;;2.20;0.77;;;;;;;5.35;100.00;99576.88;5019651;28;20991;-75
2022/04/08 05:52:32;;;;;;;1.73;0.90;;;;;;;4.79;100.00;99521.09;5021339;28;20965;-75
2022/04/08 05:54:58;;;;;;;1.87;0.90;;;;;;;5.24;100.00;99586.22;5019187;28;21781;-75
2022/04/08 05:57:23;;;;;;;2.00;0.70;;;;;;;5.22;100.00;99598.88;5018625;28;20473;-75
2022/04/08 05:59:50;;;;;;;3.03;0.80;;;;;;;5.43;100.00;99601.47;5018467;28;20214;-75
2022/04/08 06:02:16;;;;;;;1.67;1.20;;;;;;;5.61;100.00;99592.16;5016959;28;20257;-74
2022/04/08 06:04:41;;;;;;;2.97;0.93;;;;;;;5.15;100.00;99527.06;5017882;28;20435;-75
2022/04/08 06:07:07;;;;;;;3.70;1.40;;;;;;;5.08;100.00;99550.13;5015307;28;20454;-74
2022/04/08 06:09:33;;;;;;;1.67;1.00;;;;;;;4.88;100.00;99510.13;5034337;28;20315;-74
2022/04/08 06:12:02;;;;;;;4.00;0.90;;;;;;;5.66;100.00;99595.84;5017068;28;20191;-75
2022/04/08 06:14:27;;;;;;;5.87;1.03;;;;;;;5.55;100.00;99556.50;5020008;28;21037;-75
2022/04/08 06:16:53;;;;;;;3.40;1.27;;;;;;;5.71;100.00;99589.97;5015683;28;20455;-75
2022/04/08 06:19:19;;;;;;;3.53;1.30;;;;;;;5.38;100.00;99540.09;5019880;28;20238;-75
2022/04/08 06:21:44;;;;;;;3.93;1.13;;;;;;;5.30;100.00;99532.28;5017391;28;20474;-74
2022/04/08 06:24:10;;;;;;;3.37;1.30;;;;;;;5.48;100.00;99523.75;5017585;28;20948;-74
2022/04/08 06:26:36;;;;;;;3.20;0.97;;;;;;;5.18;100.00;99533.84;5019723;28;20204;-75
2022/04/08 06:29:04;;;;;;;3.50;1.10;;;;;;;5.72;100.00;99588.13;5022982;28;20192;-75
2022/04/08 06:31:33;;;;;;;3.90;1.30;;;;;;;5.96;100.00;99613.41;5021899;28;20960;-74
2022/04/08 06:33:59;;;;;;;4.13;1.10;;;;;;;5.55;100.00;99606.25;5017523;28;20467;-74
2022/04/08 06:36:25;;;;;;;3.30;1.47;;;;;;;5.26;100.00;99602.78;5017259;28;20882;-75
2022/04/08 06:38:50;;;;;;;2.57;0.80;;;;;;;5.31;100.00;99597.72;5011562;28;20481;-75
2022/04/08 06:41:16;;;;;;;4.90;0.97;;;;;;;5.24;100.00;99570.28;5013392;28;20443;-74
2022/04/08 06:43:41;;;;;;;2.33;0.90;;;;;;;5.61;100.00;99621.41;5019331;28;20247;-74
2022/04/08 06:46:07;;;;;;;2.70;1.03;;;;;;;5.32;100.00;99596.72;5018077;28;20201;-74
2022/04/08 06:48:33;;;;;;;1.90;0.80;;;;;;;5.55;100.00;99583.13;5023397;28;20184;-75
2022/04/08 06:51:00;;;;;;;4.00;1.17;;;;;;;5.67;100.00;99612.66;5023516;28;20187;-75
2022/04/08 06:53:26;;;;;;;1.80;1.10;;;;;;;5.64;100.00;99611.22;5019122;28;20463;-74
2022/04/08 06:55:51;;;;;;;3.67;0.80;;;;;;;5.79;100.00;99608.44;5017798;28;20463;-75
2022/04/08 06:58:19;;;;;;;4.10;1.23;;;;;;;5.90;100.00;99593.72;5022946;28;20863;-75
2022/04/08 07:00:44;;;;;;;3.67;1.63;;;;;;;6.02;100.00;99592.19;5019622;28;21234;-74
2022/04/08 07:03:10;;;;;;;4.20;1.20;;;;;;;5.98;100.00;99619.38;5017101;28;20442;-75
2022/04/08 07:05:35;;;;;;;2.10;1.07;;;;;;;5.82;100.00;99625.84;5016644;28;21570;-75
2022/04/08 07:08:01;;;;;;;3.20;1.00;;;;;;;5.15;100.00;99551.00;5018560;28;20199;-75
2022/04/08 07:10:26;;;;;;;2.23;0.93;;;;;;;5.63;100.00;99604.25;5019515;28;20275;-75
2022/04/08 07:12:52;;;;;;;4.23;1.00;;;;;;;4.98;100.00;99470.75;5022639;28;20214;-75
2022/04/08 07:15:17;;;;;;;5.30;1.07;;;;;;;5.69;100.00;99568.03;5021839;28;20676;-74
2022/04/08 07:17:42;;;;;;;3.97;0.97;;;;;;;5.00;100.00;99478.50;5023156;28;20690;-75
2022/04/08 07:20:08;;;;;;;2.80;1.00;;;;;;;5.67;100.00;99570.09;5020651;28;20188;-75
2022/04/08 07:22:34;;;;;;;4.07;1.07;;;;;;;5.97;100.00;99583.16;5037300;28;20767;-74
2022/04/08 07:24:59;;;;;;;3.67;1.10;;;;;;;6.26;100.00;99625.41;5018219;28;20192;-75
2022/04/08 07:27:25;;;;;;;4.77;1.03;;;;;;;6.10;100.00;99607.97;5022708;28;21006;-75
2022/04/08 07:29:51;;;;;;;3.33;0.97;;;;;;;5.77;100.00;99551.91;5022170;28;20199;-75
2022/04/08 07:32:22;;;;;;;5.20;1.30;;;;;;;6.05;100.00;99613.06;5023138;28;20187;-75
2022/04/08 07:34:51;;;;;;;5.90;1.50;;;;;;;5.72;100.00;99580.13;5022753;28;20443;-75
2022/04/08 07:37:30;;;;;;;8.63;1.30;;;;;;;6.17;100.00;99629.28;5020980;28;20443;-75
2022/04/08 07:39:57;;;;;;;5.13;1.10;;;;;;;6.27;100.00;99619.06;5024223;28;20437;-75
2022/04/08 07:42:23;;;;;;;6.93;1.77;;;;;;;5.91;100.00;99565.28;5016853;28;20453;-75
2022/04/08 07:44:50;;;;;;;7.37;1.67;;;;;;;6.05;100.00;99589.09;5014144;28;20499;-75
2022/04/08 07:47:16;;;;;;;4.57;1.07;;;;;;;6.41;100.00;99632.44;5011060;28;20613;-74
2022/04/08 07:49:42;;;;;;;5.23;1.20;;;;;;;5.97;100.00;99562.66;5020597;28;20564;-75
2022/04/08 07:52:07;;;;;;;6.90;1.70;;;;;;;6.11;100.00;99601.63;5029935;28;20480;-75
2022/04/08 07:54:33;;;;;;;3.10;1.13;;;;;;;6.41;100.00;99643.91;5013825;28;20312;-76
2022/04/08 07:56:59;;;;;;;3.47;1.40;;;;;;;6.23;100.00;99590.38;5014856;28;20229;-76
2022/04/08 07:59:24;;;;;;;4.43;1.60;;;;;;;6.42;100.00;99637.56;5013231;28;20544;-79
2022/04/08 08:01:50;;;;;;;5.50;0.97;;;;;;;6.14;100.00;99583.63;5012246;28;20500;-78
2022/04/08 08:04:16;;;;;;;2.10;0.80;;;;;;;6.30;100.00;99618.66;5004555;28;20947;-78
2022/04/08 08:06:44;;;;;;;1.30;0.70;;;;;;;6.09;100.00;99582.34;5013143;28;20204;-77
2022/04/08 08:09:09;;;;;;;3.77;0.90;;;;;;;6.49;100.00;99638.38;5016029;28;20267;-78
2022/04/08 08:11:35;;;;;;;3.73;1.03;;;;;;;6.38;100.00;99624.84;5005788;28;22971;-77
2022/04/08 08:14:01;;;;;;;2.83;0.90;;;;;;;6.66;100.00;99638.84;5013518;28;20216;-77
2022/04/08 08:16:26;;;;;;;3.13;1.00;;;;;;;6.13;100.00;99576.63;5015509;28;21019;-77
2022/04/08 08:18:56;;;;;;;4.60;1.07;;;;;;;6.32;100.00;99587.31;5012211;28;20731;-77
2022/04/08 08:21:23;;;;;;;7.50;1.57;;;;;;;6.63;100.00;99617.13;5013802;28;20231;-78
2022/04/08 08:23:50;;;;;;;3.23;0.90;;;;;;;6.75;100.00;99631.47;5016773;28;20454;-77
2022/04/08 08:26:15;;;;;;;4.80;1.60;;;;;;;6.70;100.00;99647.25;5012906;28;20613;-77
2022/04/08 08:28:41;;;;;;;8.93;1.93;;;;;;;6.45;100.00;99604.34;5019485;28;20454;-78
2022/04/08 08:31:07;;;;;;;5.83;1.57;;;;;;;6.56;100.00;99611.75;5014025;28;20311;-78
2022/04/08 08:33:32;;;;;;;3.63;1.20;;;;;;;6.67;100.00;99615.66;5028460;28;20258;-78
2022/04/08 08:35:58;;;;;;;2.63;1.07;;;;;;;6.15;100.00;99508.03;5015247;28;20470;-78
2022/04/08 08:38:23;;;;;;;3.87;1.40;;;;;;;6.57;100.00;99582.25;5017506;28;20688;-78
2022/04/08 08:40:58;;;;;;;5.97;1.60;;;;;;;7.07;100.00;99666.34;5018343;28;20283;-78
2022/04/08 08:43:24;;;;;;;5.37;1.40;;;;;;;6.92;100.00;99664.72;5018891;28;20179;-77
2022/04/08 08:45:49;;;;;;;5.40;1.70;;;;;;;6.90;100.00;99625.94;5020745;28;20933;-77
2022/04/08 08:48:16;;;;;;;7.20;1.27;;;;;;;7.04;100.00;99656.09;5037274;28;20248;-78
2022/04/08 08:50:46;;;;;;;4.57;1.37;;;;;;;6.70;100.00;99633.91;5020155;28;20246;-77
2022/04/08 08:53:16;;;;;;;2.80;1.07;;;;;;;6.68;100.00;99638.63;5019958;28;20467;-74
2022/04/08 08:55:41;;;;;;;4.23;1.10;;;;;;;7.04;100.00;99653.44;5018302;28;20477;-74
2022/04/08 08:58:08;;;;;;;4.97;1.20;;;;;;;6.69;100.00;99645.59;5019859;28;20446;-74
2022/04/08 09:00:35;;;;;;;2.03;1.10;;;;;;;6.93;100.00;99649.53;5012477;28;20200;-74
2022/04/08 09:03:02;;;;;;;6.10;1.43;;;;;;;6.68;100.00;99572.00;5013361;28;20968;-75
2022/04/08 09:05:28;;;;;;;6.63;1.80;;;;;;;6.67;100.00;99586.38;5023135;28;20463;-74
2022/04/08 09:08:02;;;;;;;5.93;1.80;;;;;;;6.23;100.00;99505.19;5013906;28;20482;-74
2022/04/08 09:10:53;;;;;;;6.30;1.03;;;;;;;6.92;100.00;99639.91;5017983;28;20184;-74
2022/04/08 09:13:20;;;;;;;3.57;1.33;;;;;;;6.99;100.00;99635.38;5013801;28;20475;-74
2022/04/08 09:15:56;;;;;;;4.43;1.03;;;;;;;6.72;100.00;99607.91;5020737;28;20481;-74
2022/04/08 09:18:22;;;;;;;1.87;1.00;;;;;;;6.85;100.00;99642.53;5017671;28;21720;-74
2022/04/08 09:20:49;;;;;;;3.80;1.20;;;;;;;6.72;100.00;99642.53;5018835;28;20446;-74
2022/04/08 09:23:17;;;;;;;3.93;1.10;;;;;;;6.86;100.00;99643.38;5022306;28;20967;-74
2022/04/08 09:25:43;;;;;;;6.47;1.40;;;;;;;6.97;100.00;99634.75;5019075;28;20493;-74
2022/04/08 09:28:14;;;;;;;3.97;2.00;;;;;;;6.83;100.00;99636.59;5019041;28;20439;-74
2022/04/08 09:30:40;;;;;;;2.53;1.00;;;;;;;6.75;100.00;99586.16;5020269;28;20443;-74
2022/04/08 09:33:16;;;;;;;3.50;1.00;;;;;;;7.20;100.00;99640.53;5019852;28;20465;-74
2022/04/08 09:35:42;;;;;;;6.63;1.70;;;;;;;7.07;100.00;99629.84;5019007;28;20466;-74
2022/04/08 09:38:09;;;;;;;2.80;1.00;;;;;;;7.01;100.00;99580.00;5020060;28;20435;-75
2022/04/08 09:40:44;;;;;;;6.67;1.40;;;;;;;7.12;100.00;99626.56;5018115;28;20474;-74
2022/04/08 09:43:10;;;;;;;3.67;0.97;;;;;;;7.28;100.00;99626.13;5019297;28;20441;-74
2022/04/08 09:45:38;;;;;;;5.13;1.13;;;;;;;7.18;100.00;99636.41;5020313;28;20860;-74
2022/04/08 09:48:05;;;;;;;2.30;1.00;;;;;;;7.40;100.00;99613.78;5019940;28;20189;-74
2022/04/08 09:50:31;;;;;;;7.00;1.40;;;;;;;7.22;100.00;99625.09;5021270;28;20609;-74
2022/04/08 09:52:57;;;;;;;1.20;0.60;;;;;;;7.43;100.00;99615.22;5018687;28;20473;-75
2022/04/08 09:55:25;;;;;;;4.77;1.20;;;;;;;7.24;100.00;99620.41;5019804;22;20516;-70
2022/04/08 09:57:55;;;;;;;4.77;1.07;;;;;;;7.38;100.00;99621.22;4980121;28;20535;-70
2022/04/08 10:00:21;;;;;;;3.13;0.80;;;;;;;7.04;100.00;99592.94;4984101;28;26522;-70
2022/04/08 10:02:49;;;;;;;3.67;0.80;;;;;;;6.97;100.00;99634.75;4984396;28;20439;-70
2022/04/08 10:05:15;;;;;;;3.37;0.90;;;;;;;6.98;100.00;99621.22;4984661;28;20292;-71
2022/04/08 10:07:43;;;;;;;4.30;0.80;;;;;;;7.06;100.00;99627.38;4990790;28;20893;-70
2022/04/08 10:10:13;;;;;;;3.80;0.80;;;;;;;6.85;100.00;99572.41;4991182;28;20193;-70
2022/04/08 10:13:03;;;;;;;1.27;0.70;;;;;;;7.46;100.00;99623.66;4995964;28;20468;-70
2022/04/08 10:15:42;;;;;;;2.60;0.90;;;;;;;7.45;100.00;99632.69;4990644;28;20547;-70
2022/04/08 10:18:07;;;;;;;5.20;1.30;;;;;;;7.43;100.00;99615.22;4992901;28;20440;-70
2022/04/08 10:20:35;;;;;;;2.50;0.80;;;;;;;7.51;100.00;99612.34;4990154;28;20455;-70
2022/04/08 10:23:11;;;;;;;3.93;1.10;;;;;;;7.79;100.00;99636.09;4989241;28;20189;-70
2022/04/08 10:25:51;;;;;;;2.70;0.90;;;;;;;7.61;100.00;99593.25;4989897;28;21041;-70
2022/04/08 10:28:16;;;;;;;3.73;0.90;;;;;;;7.40;100.00;99544.44;4991001;28;20440;-70
2022/04/08 10:30:49;;;;;;;3.80;1.10;;;;;;;7.86;100.00;99599.50;4987431;28;21333;-70
2022/04/08 10:33:29;;;;;;;4.70;1.17;;;;;;;7.98;100.00;99617.53;4991896;28;20213;-70
2022/04/08 10:36:01;;;;;;;1.70;0.90;;;;;;;7.65;100.00;99599.78;4990042;28;20471;-70
2022/04/08 10:38:38;;;;;;;5.97;1.90;;;;;;;7.54;100.00;99558.56;4984689;28;20433;-70
2022/04/08 10:41:09;;;;;;;6.90;1.40;;;;;;;7.90;100.00;99599.94;4982235;28;20451;-70
2022/04/08 10:43:45;;;;;;;4.67;2.10;;;;;;;7.93;100.00;99602.19;4987348;28;20877;-70
2022/04/08 10:46:10;;;;;;;2.63;0.90;;;;;;;7.75;100.00;99616.19;4980863;28;20472;-71
2022/04/08 10:48:37;;;;;;;3.27;1.10;;;;;;;7.66;100.00;99604.09;4980135;28;20448;-70
2022/04/08 10:51:11;;;;;;;4.00;1.23;;;;;;;7.40;100.00;99533.75;4981324;28;20198;-70
2022/04/08 10:53:42;;;;;;;2.60;0.83;;;;;;;7.68;100.00;99607.38;4983668;28;20476;-70
2022/04/08 10:56:12;;;;;;;2.33;1.00;;;;;;;7.87;100.00;99609.19;4979363;28;20559;-71
2022/04/08 10:58:43;;;;;;;5.07;1.40;;;;;;;7.93;100.00;99594.16;4982773;28;20502;-71
2022/04/08 11:01:22;;;;;;;6.63;1.20;;;;;;;8.18;100.00;99602.25;4979124;28;20472;-70
2022/04/08 11:04:01;;;;;;;3.87;1.13;;;;;;;8.11;100.00;99609.50;4976884;28;20429;-71
2022/04/08 11:06:27;;;;;;;4.60;1.43;;;;;;;7.93;100.00;99594.97;4982981;28;20456;-70
2022/04/08 11:08:53;;;;;;;7.60;1.30;;;;;;;7.97;100.00;99578.53;4990453;28;20432;-70
2022/04/08 11:11:28;;;;;;;4.80;1.00;;;;;;;7.68;100.00;99548.66;4988321;28;20441;-70
2022/04/08 11:14:04;;;;;;;3.23;1.30;;;;;;;8.13;100.00;99604.75;4980784;28;20650;-70
2022/04/08 11:16:40;;;;;;;7.10;1.60;;;;;;;7.77;100.00;99534.03;4985969;28;20468;-71
2022/04/08 11:19:11;;;;;;;4.90;1.37;;;;;;;8.00;100.00;99602.94;4985912;28;21497;-70
2022/04/08 11:21:37;;;;;;;4.17;1.17;;;;;;;8.10;100.00;99614.00;4993462;28;20455;-71
2022/04/08 11:24:09;;;;;;;7.90;1.33;;;;;;;7.87;100.00;99590.50;4983609;28;20472;-71
2022/04/08 11:26:46;;;;;;;4.93;1.23;;;;;;;8.05;100.00;99559.59;4977592;28;20492;-71
2022/04/08 11:29:17;;;;;;;4.40;1.20;;;;;;;8.09;100.00;99584.84;4978923;28;20535;-71
2022/04/08 11:31:44;;;;;;;4.93;1.13;;;;;;;8.30;100.00;99605.91;4977767;28;20437;-71
2022/04/08 11:34:10;;;;;;;4.07;1.40;;;;;;;8.09;100.00;99615.03;4975677;28;20487;-71